Terminal Aerodrome Forecast
Issued by NWS

Home | Current Version | Previous Version | Text Only | Print | Product List | Glossary On
Versions: 1 2 3 4 5 6 7 8 9 10 11 12 13 14 15 16 17 18 19 20 21 22 23 24 25 26 27 28 29 30 31 32 33 34 35 36 37 38 39 40 41 42 43 44 45 46 47 48 49 50
000
FTUS42 KGSP 281140
TAFHKY
TAF
KHKY 281140Z 2812/2912 22005KT P6SM BKN100
     FM281700 24009G16KT P6SM BKN050
     FM282100 27010G17KT P6SM BKN035 PROB30 2821/2824 4SM -RASN BR
      OVC025
     FM290000 27010KT P6SM SCT035
     FM290500 25005KT P6SM FEW250
     FM291100 29006KT P6SM FEW180=

USA.gov is the U.S. government's official web portal to all federal, state and local government web resources and services.